sensor_id;sensor_type;location;lat;lon;timestamp;pressure;altitude;pressure_sealevel;temperature;humidity
2841;BME280;53423;49.224;12.074;2023-03-01T00:01:44;98642.50;;;0.56;60.79
2841;BME280;53423;49.224;12.074;2023-03-01T00:04:12;98633.91;;;0.56;60.83
2841;BME280;53423;49.224;12.074;2023-03-01T00:06:43;98635.69;;;0.71;60.48
2841;BME280;53423;49.224;12.074;2023-03-01T00:09:13;98633.63;;;0.77;60.08
2841;BME280;53423;49.224;12.074;2023-03-01T00:11:41;98636.44;;;0.73;59.86
2841;BME280;53423;49.224;12.074;2023-03-01T00:14:09;98627.38;;;0.66;60.63
2841;BME280;53423;49.224;12.074;2023-03-01T00:16:38;98641.09;;;0.66;59.47
2841;BME280;53423;49.224;12.074;2023-03-01T00:19:07;98640.13;;;0.69;59.88
2841;BME280;53423;49.224;12.074;2023-03-01T00:21:37;98634.66;;;0.58;60.14
2841;BME280;53423;49.224;12.074;2023-03-01T00:24:07;98630.53;;;0.71;60.19
2841;BME280;53423;49.224;12.074;2023-03-01T00:26:35;98628.72;;;0.73;59.73
2841;BME280;53423;49.224;12.074;2023-03-01T00:29:04;98626.06;;;0.74;59.95
2841;BME280;53423;49.224;12.074;2023-03-01T00:31:32;98632.53;;;0.66;59.87
2841;BME280;53423;49.224;12.074;2023-03-01T00:34:02;98626.56;;;0.65;59.72
2841;BME280;53423;49.224;12.074;2023-03-01T00:36:32;98618.41;;;0.73;59.67
2841;BME280;53423;49.224;12.074;2023-03-01T00:39:02;98613.66;;;0.81;59.65
2841;BME280;53423;49.224;12.074;2023-03-01T00:41:33;98612.34;;;0.89;59.29
2841;BME280;53423;49.224;12.074;2023-03-01T00:44:01;98614.78;;;0.92;59.25
2841;BME280;53423;49.224;12.074;2023-03-01T00:46:29;98618.69;;;0.84;58.96
2841;BME280;53423;49.224;12.074;2023-03-01T00:48:58;98618.31;;;0.74;59.83
2841;BME280;53423;49.224;12.074;2023-03-01T00:51:28;98607.78;;;0.79;59.52
2841;BME280;53423;49.224;12.074;2023-03-01T00:53:58;98610.81;;;0.70;59.43
2841;BME280;53423;49.224;12.074;2023-03-01T00:56:26;98611.75;;;0.69;60.07
2841;BME280;53423;49.224;12.074;2023-03-01T00:58:56;98612.47;;;0.71;59.42
2841;BME280;53423;49.224;12.074;2023-03-01T01:01:26;98613.91;;;0.76;59.27
2841;BME280;53423;49.224;12.074;2023-03-01T01:03:59;98615.56;;;0.77;59.31
2841;BME280;53423;49.224;12.074;2023-03-01T01:06:28;98605.09;;;0.80;59.25
2841;BME280;53423;49.224;12.074;2023-03-01T01:08:57;98606.09;;;0.78;59.05
2841;BME280;53423;49.224;12.074;2023-03-01T01:11:27;98607.81;;;0.62;60.05
2841;BME280;53423;49.224;12.074;2023-03-01T01:13:58;98605.16;;;0.63;59.64
2841;BME280;53423;49.224;12.074;2023-03-01T01:16:27;98598.47;;;0.59;60.05
2841;BME280;53423;49.224;12.074;2023-03-01T01:18:56;98594.00;;;0.63;59.28
2841;BME280;53423;49.224;12.074;2023-03-01T01:21:25;98591.84;;;0.55;60.00
2841;BME280;53423;49.224;12.074;2023-03-01T01:23:53;98588.09;;;0.61;59.77
2841;BME280;53423;49.224;12.074;2023-03-01T01:26:23;98583.00;;;0.59;59.53
2841;BME280;53423;49.224;12.074;2023-03-01T01:28:51;98581.44;;;0.57;59.33
2841;BME280;53423;49.224;12.074;2023-03-01T01:31:22;98585.03;;;0.37;60.10
2841;BME280;53423;49.224;12.074;2023-03-01T01:33:51;98579.94;;;0.53;59.73
2841;BME280;53423;49.224;12.074;2023-03-01T01:36:19;98570.78;;;0.63;59.75
2841;BME280;53423;49.224;12.074;2023-03-01T01:38:47;98569.19;;;0.45;60.10
2841;BME280;53423;49.224;12.074;2023-03-01T01:41:18;98559.84;;;0.42;60.22
2841;BME280;53423;49.224;12.074;2023-03-01T01:43:48;98561.31;;;0.31;60.35
2841;BME280;53423;49.224;12.074;2023-03-01T01:46:24;98568.44;;;0.10;61.07
2841;BME280;53423;49.224;12.074;2023-03-01T01:48:58;98560.72;;;0.26;61.18
2841;BME280;53423;49.224;12.074;2023-03-01T01:51:31;98554.66;;;0.44;59.91
2841;BME280;53423;49.224;12.074;2023-03-01T01:54:10;98554.19;;;0.36;60.19
2841;BME280;53423;49.224;12.074;2023-03-01T01:56:42;98551.09;;;0.29;60.29
2841;BME280;53423;49.224;12.074;2023-03-01T01:59:12;98553.28;;;0.37;60.40
2841;BME280;53423;49.224;12.074;2023-03-01T02:01:42;98556.28;;;0.45;59.89
2841;BME280;53423;49.224;12.074;2023-03-01T02:04:11;98550.53;;;0.40;60.28
2841;BME280;53423;49.224;12.074;2023-03-01T02:06:43;98544.66;;;0.53;59.41
2841;BME280;53423;49.224;12.074;2023-03-01T02:09:15;98542.09;;;0.53;59.27
2841;BME280;53423;49.224;12.074;2023-03-01T02:11:44;98534.44;;;0.67;59.00
2841;BME280;53423;49.224;12.074;2023-03-01T02:14:12;98536.81;;;0.39;59.85
2841;BME280;53423;49.224;12.074;2023-03-01T02:16:43;98537.31;;;0.46;59.54
2841;BME280;53423;49.224;12.074;2023-03-01T02:19:22;98527.84;;;0.77;58.12
2841;BME280;53423;49.224;12.074;2023-03-01T02:21:59;98517.19;;;0.52;58.48
2841;BME280;53423;49.224;12.074;2023-03-01T02:24:33;98523.28;;;0.51;59.37
2841;BME280;53423;49.224;12.074;2023-03-01T02:27:05;98513.72;;;0.53;58.87
2841;BME280;53423;49.224;12.074;2023-03-01T02:29:37;98519.88;;;0.35;59.50
2841;BME280;53423;49.224;12.074;2023-03-01T02:32:05;98507.47;;;0.57;59.13
2841;BME280;53423;49.224;12.074;2023-03-01T02:34:33;98509.16;;;0.74;58.04
2841;BME280;53423;49.224;12.074;2023-03-01T02:37:05;98502.66;;;0.67;58.20
2841;BME280;53423;49.224;12.074;2023-03-01T02:39:39;98509.84;;;0.29;59.28
2841;BME280;53423;49.224;12.074;2023-03-01T02:42:11;98503.28;;;0.24;60.03
2841;BME280;53423;49.224;12.074;2023-03-01T02:44:42;98501.22;;;0.30;58.99
2841;BME280;53423;49.224;12.074;2023-03-01T02:47:10;98500.06;;;0.36;58.90
2841;BME280;53423;49.224;12.074;2023-03-01T02:49:37;98508.97;;;0.46;58.15
2841;BME280;53423;49.224;12.074;2023-03-01T02:52:16;98498.41;;;0.50;58.34
2841;BME280;53423;49.224;12.074;2023-03-01T02:54:51;98502.41;;;0.40;58.36
2841;BME280;53423;49.224;12.074;2023-03-01T02:57:23;98502.41;;;0.40;59.22
2841;BME280;53423;49.224;12.074;2023-03-01T02:59:56;98493.34;;;0.49;58.19
2841;BME280;53423;49.224;12.074;2023-03-01T03:02:26;98499.13;;;0.21;59.17
2841;BME280;53423;49.224;12.074;2023-03-01T03:05:06;98496.13;;;0.29;59.13
2841;BME280;53423;49.224;12.074;2023-03-01T03:07:37;98503.00;;;0.13;59.49
2841;BME280;53423;49.224;12.074;2023-03-01T03:10:08;98505.75;;;0.10;59.71
2841;BME280;53423;49.224;12.074;2023-03-01T03:12:38;98502.09;;;0.14;59.61
2841;BME280;53423;49.224;12.074;2023-03-01T03:15:09;98488.22;;;0.16;59.48
2841;BME280;53423;49.224;12.074;2023-03-01T03:17:41;98494.94;;;0.19;59.41
2841;BME280;53423;49.224;12.074;2023-03-01T03:20:13;98483.41;;;0.10;58.76
2841;BME280;53423;49.224;12.074;2023-03-01T03:22:47;98483.03;;;0.00;59.74
2841;BME280;53423;49.224;12.074;2023-03-01T03:25:15;98487.38;;;0.00;59.82
2841;BME280;53423;49.224;12.074;2023-03-01T03:27:45;98489.50;;;-0.08;59.90
2841;BME280;53423;49.224;12.074;2023-03-01T03:30:17;98487.56;;;0.13;59.76
2841;BME280;53423;49.224;12.074;2023-03-01T03:32:47;98489.44;;;0.09;59.76
2841;BME280;53423;49.224;12.074;2023-03-01T03:35:20;98488.13;;;-0.15;60.46
2841;BME280;53423;49.224;12.074;2023-03-01T03:37:48;98494.22;;;-0.16;60.14
2841;BME280;53423;49.224;12.074;2023-03-01T03:40:33;98491.38;;;-0.12;60.04
2841;BME280;53423;49.224;12.074;2023-03-01T03:43:02;98489.69;;;0.05;59.22
2841;BME280;53423;49.224;12.074;2023-03-01T03:45:31;98482.97;;;-0.15;60.25
2841;BME280;53423;49.224;12.074;2023-03-01T03:48:03;98480.81;;;-0.23;60.14
2841;BME280;53423;49.224;12.074;2023-03-01T03:50:32;98475.59;;;-0.21;60.62
2841;BME280;53423;49.224;12.074;2023-03-01T03:53:01;98471.50;;;-0.25;60.75
2841;BME280;53423;49.224;12.074;2023-03-01T03:55:29;98470.75;;;-0.27;60.67
2841;BME280;53423;49.224;12.074;2023-03-01T03:57:58;98463.97;;;-0.13;60.19
2841;BME280;53423;49.224;12.074;2023-03-01T04:00:28;98470.28;;;-0.18;60.33
2841;BME280;53423;49.224;12.074;2023-03-01T04:02:58;98472.94;;;-0.20;60.63
2841;BME280;53423;49.224;12.074;2023-03-01T04:05:27;98478.09;;;-0.37;61.11
2841;BME280;53423;49.224;12.074;2023-03-01T04:07:56;98484.25;;;-0.56;61.60
2841;BME280;53423;49.224;12.074;2023-03-01T04:10:35;98480.63;;;-0.69;61.83
2841;BME280;53423;49.224;12.074;2023-03-01T04:13:05;98474.94;;;-0.59;61.98
2841;BME280;53423;49.224;12.074;2023-03-01T04:15:34;98478.09;;;-0.54;61.88
2841;BME280;53423;49.224;12.074;2023-03-01T04:18:04;98474.81;;;-0.56;61.75
2841;BME280;53423;49.224;12.074;2023-03-01T04:20:34;98474.66;;;-0.70;62.09
2841;BME280;53423;49.224;12.074;2023-03-01T04:23:05;98474.97;;;-0.76;62.04
2841;BME280;53423;49.224;12.074;2023-03-01T04:25:40;98468.91;;;-0.58;61.86
2841;BME280;53423;49.224;12.074;2023-03-01T04:28:09;98464.28;;;-0.51;61.43
2841;BME280;53423;49.224;12.074;2023-03-01T04:30:38;98471.22;;;-0.53;61.36
2841;BME280;53423;49.224;12.074;2023-03-01T04:33:10;98468.50;;;-0.50;61.09
2841;BME280;53423;49.224;12.074;2023-03-01T04:35:39;98478.66;;;-0.64;61.54
2841;BME280;53423;49.224;12.074;2023-03-01T04:38:10;98473.53;;;-0.64;61.39
2841;BME280;53423;49.224;12.074;2023-03-01T04:40:38;98479.19;;;-0.58;61.53
2841;BME280;53423;49.224;12.074;2023-03-01T04:43:09;98476.00;;;-0.80;62.23
2841;BME280;53423;49.224;12.074;2023-03-01T04:45:38;98487.03;;;-0.95;63.06
2841;BME280;53423;49.224;12.074;2023-03-01T04:48:06;98481.66;;;-0.90;62.88
2841;BME280;53423;49.224;12.074;2023-03-01T04:50:35;98476.38;;;-0.87;63.12
2841;BME280;53423;49.224;12.074;2023-03-01T04:53:03;98474.47;;;-0.84;62.81
2841;BME280;53423;49.224;12.074;2023-03-01T04:55:31;98476.13;;;-1.00;62.97
2841;BME280;53423;49.224;12.074;2023-03-01T04:57:59;98481.22;;;-0.98;63.56
2841;BME280;53423;49.224;12.074;2023-03-01T05:00:27;98476.59;;;-0.92;63.10
2841;BME280;53423;49.224;12.074;2023-03-01T05:02:57;98477.97;;;-0.85;62.71
2841;BME280;53423;49.224;12.074;2023-03-01T05:05:27;98487.19;;;-0.98;62.81
2841;BME280;53423;49.224;12.074;2023-03-01T05:07:58;98485.59;;;-1.00;62.78
2841;BME280;53423;49.224;12.074;2023-03-01T05:10:27;98483.16;;;-1.03;63.15
2841;BME280;53423;49.224;12.074;2023-03-01T05:12:57;98484.25;;;-0.90;62.63
2841;BME280;53423;49.224;12.074;2023-03-01T05:15:25;98477.50;;;-1.10;63.31
2841;BME280;53423;49.224;12.074;2023-03-01T05:17:58;98481.50;;;-1.04;63.44
2841;BME280;53423;49.224;12.074;2023-03-01T05:20:27;98475.72;;;-0.91;62.72
2841;BME280;53423;49.224;12.074;2023-03-01T05:22:58;98479.94;;;-0.90;62.89
2841;BME280;53423;49.224;12.074;2023-03-01T05:25:26;98473.59;;;-0.83;62.86
2841;BME280;53423;49.224;12.074;2023-03-01T05:28:03;98467.66;;;-1.02;62.97
2841;BME280;53423;49.224;12.074;2023-03-01T05:30:31;98458.97;;;-0.99;62.71
2841;BME280;53423;49.224;12.074;2023-03-01T05:32:59;98461.84;;;-1.05;63.12
2841;BME280;53423;49.224;12.074;2023-03-01T05:35:27;98467.66;;;-1.02;63.11
2841;BME280;53423;49.224;12.074;2023-03-01T05:37:57;98462.50;;;-1.02;62.98
2841;BME280;53423;49.224;12.074;2023-03-01T05:40:25;98464.41;;;-1.05;62.81
2841;BME280;53423;49.224;12.074;2023-03-01T05:42:55;98462.22;;;-1.13;62.97
2841;BME280;53423;49.224;12.074;2023-03-01T05:45:24;98451.63;;;-1.07;63.01
2841;BME280;53423;49.224;12.074;2023-03-01T05:47:53;98451.63;;;-1.07;62.71
2841;BME280;53423;49.224;12.074;2023-03-01T05:50:23;98454.13;;;-0.88;62.40
2841;BME280;53423;49.224;12.074;2023-03-01T05:52:56;98450.50;;;-0.84;61.75
2841;BME280;53423;49.224;12.074;2023-03-01T05:55:26;98458.75;;;-0.78;61.73
2841;BME280;53423;49.224;12.074;2023-03-01T05:57:54;98454.75;;;-0.83;61.91
2841;BME280;53423;49.224;12.074;2023-03-01T06:00:23;98454.81;;;-0.85;62.01
2841;BME280;53423;49.224;12.074;2023-03-01T06:02:51;98443.56;;;-0.82;62.26
2841;BME280;53423;49.224;12.074;2023-03-01T06:05:19;98442.28;;;-0.91;62.35
2841;BME280;53423;49.224;12.074;2023-03-01T06:07:47;98438.47;;;-0.67;61.92
2841;BME280;53423;49.224;12.074;2023-03-01T06:10:16;98440.81;;;-0.62;61.45
2841;BME280;53423;49.224;12.074;2023-03-01T06:12:46;98452.94;;;-0.64;61.28
2841;BME280;53423;49.224;12.074;2023-03-01T06:15:15;98446.34;;;-0.70;61.76
2841;BME280;53423;49.224;12.074;2023-03-01T06:17:44;98449.44;;;-0.63;61.11
2841;BME280;53423;49.224;12.074;2023-03-01T06:20:14;98435.09;;;-0.52;61.28
2841;BME280;53423;49.224;12.074;2023-03-01T06:22:43;98439.19;;;-0.31;60.73
2841;BME280;53423;49.224;12.074;2023-03-01T06:25:13;98442.97;;;-0.38;60.97
2841;BME280;53423;49.224;12.074;2023-03-01T06:27:45;98437.06;;;-0.07;59.99
2841;BME280;53423;49.224;12.074;2023-03-01T06:30:16;98441.78;;;0.33;58.89
2841;BME280;53423;49.224;12.074;2023-03-01T06:32:44;98454.16;;;0.27;58.88
2841;BME280;53423;49.224;12.074;2023-03-01T06:35:14;98445.47;;;0.74;58.20
2841;BME280;53423;49.224;12.074;2023-03-01T06:37:44;98448.84;;;1.36;56.12
2841;BME280;53423;49.224;12.074;2023-03-01T06:40:13;98445.41;;;1.35;56.06
2841;BME280;53423;49.224;12.074;2023-03-01T06:42:49;98449.75;;;1.05;56.31
2841;BME280;53423;49.224;12.074;2023-03-01T06:45:18;98450.28;;;1.25;56.16
2841;BME280;53423;49.224;12.074;2023-03-01T06:47:47;98449.28;;;1.28;56.07
2841;BME280;53423;49.224;12.074;2023-03-01T06:50:16;98442.06;;;1.63;54.95
2841;BME280;53423;49.224;12.074;2023-03-01T06:52:45;98449.72;;;2.34;52.94
2841;BME280;53423;49.224;12.074;2023-03-01T06:55:16;98438.75;;;3.11;51.00
2841;BME280;53423;49.224;12.074;2023-03-01T06:57:44;98439.16;;;3.94;48.63
2841;BME280;53423;49.224;12.074;2023-03-01T07:00:16;98436.34;;;3.47;50.08
2841;BME280;53423;49.224;12.074;2023-03-01T07:02:44;98431.97;;;4.10;48.24
2841;BME280;53423;49.224;12.074;2023-03-01T07:05:12;98430.44;;;4.80;46.42
2841;BME280;53423;49.224;12.074;2023-03-01T07:07:40;98439.00;;;4.69;46.57
2841;BME280;53423;49.224;12.074;2023-03-01T07:10:09;98436.38;;;5.97;43.46
2841;BME280;53423;49.224;12.074;2023-03-01T07:12:37;98430.66;;;6.58;41.79
2841;BME280;53423;49.224;12.074;2023-03-01T07:15:08;98424.50;;;7.54;38.89
2841;BME280;53423;49.224;12.074;2023-03-01T07:17:37;98416.72;;;7.84;38.52
2841;BME280;53423;49.224;12.074;2023-03-01T07:20:05;98416.56;;;8.06;37.56
2841;BME280;53423;49.224;12.074;2023-03-01T07:22:33;98411.34;;;8.06;38.23
2841;BME280;53423;49.224;12.074;2023-03-01T07:25:01;98410.19;;;7.69;38.40
2841;BME280;53423;49.224;12.074;2023-03-01T07:27:29;98398.59;;;6.58;41.29
2841;BME280;53423;49.224;12.074;2023-03-01T07:29:57;98391.78;;;7.91;38.82
2841;BME280;53423;49.224;12.074;2023-03-01T07:32:25;98398.97;;;8.08;37.26
2841;BME280;53423;49.224;12.074;2023-03-01T07:34:55;98397.16;;;8.78;36.35
2841;BME280;53423;49.224;12.074;2023-03-01T07:37:22;98395.75;;;7.95;37.12
2841;BME280;53423;49.224;12.074;2023-03-01T07:39:50;98399.63;;;8.01;37.49
2841;BME280;53423;49.224;12.074;2023-03-01T07:42:18;98411.06;;;7.58;38.13
2841;BME280;53423;49.224;12.074;2023-03-01T07:44:46;98408.47;;;7.58;38.16
2841;BME280;53423;49.224;12.074;2023-03-01T07:47:14;98407.06;;;7.54;37.95
2841;BME280;53423;49.224;12.074;2023-03-01T07:49:42;98404.59;;;9.31;35.50
2841;BME280;53423;49.224;12.074;2023-03-01T07:52:11;98408.56;;;9.44;35.20
2841;BME280;53423;49.224;12.074;2023-03-01T07:54:42;98393.72;;;8.97;35.14
2841;BME280;53423;49.224;12.074;2023-03-01T07:57:11;98395.72;;;8.16;37.55
2841;BME280;53423;49.224;12.074;2023-03-01T07:59:39;98386.47;;;7.82;37.85
2841;BME280;53423;49.224;12.074;2023-03-01T08:02:08;98388.50;;;7.48;38.76
2841;BME280;53423;49.224;12.074;2023-03-01T08:04:36;98393.94;;;7.24;38.83
2841;BME280;53423;49.224;12.074;2023-03-01T08:07:05;98397.03;;;6.66;40.83
2841;BME280;53423;49.224;12.074;2023-03-01T08:09:35;98391.63;;;6.36;42.02
2841;BME280;53423;49.224;12.074;2023-03-01T08:12:04;98383.78;;;6.58;40.30
2841;BME280;53423;49.224;12.074;2023-03-01T08:14:34;98387.97;;;6.81;41.24
2841;BME280;53423;49.224;12.074;2023-03-01T08:17:02;98392.66;;;6.98;40.08
2841;BME280;53423;49.224;12.074;2023-03-01T08:19:30;98392.81;;;6.86;41.28
2841;BME280;53423;49.224;12.074;2023-03-01T08:21:59;98394.34;;;6.88;40.91
2841;BME280;53423;49.224;12.074;2023-03-01T08:24:27;98391.44;;;7.02;39.90
2841;BME280;53423;49.224;12.074;2023-03-01T08:26:57;98388.88;;;7.43;40.68
2841;BME280;53423;49.224;12.074;2023-03-01T08:29:25;98382.06;;;8.03;37.57
2841;BME280;53423;49.224;12.074;2023-03-01T08:31:53;98388.22;;;7.72;38.73
2841;BME280;53423;49.224;12.074;2023-03-01T08:34:21;98378.34;;;8.05;38.26
2841;BME280;53423;49.224;12.074;2023-03-01T08:36:49;98381.63;;;7.98;38.43
2841;BME280;53423;49.224;12.074;2023-03-01T08:39:20;98374.47;;;8.00;37.90
2841;BME280;53423;49.224;12.074;2023-03-01T08:41:48;98381.53;;;8.39;36.46
2841;BME280;53423;49.224;12.074;2023-03-01T08:44:17;98383.34;;;8.48;36.40
2841;BME280;53423;49.224;12.074;2023-03-01T08:46:46;98374.66;;;8.38;36.92
2841;BME280;53423;49.224;12.074;2023-03-01T08:49:18;98368.59;;;7.98;37.59
2841;BME280;53423;49.224;12.074;2023-03-01T08:51:47;98363.94;;;8.41;35.43
2841;BME280;53423;49.224;12.074;2023-03-01T08:54:17;98354.22;;;8.81;34.65
2841;BME280;53423;49.224;12.074;2023-03-01T08:56:46;98351.47;;;8.63;36.52
2841;BME280;53423;49.224;12.074;2023-03-01T08:59:15;98354.78;;;8.75;35.47
2841;BME280;53423;49.224;12.074;2023-03-01T09:01:45;98345.94;;;8.38;35.98
2841;BME280;53423;49.224;12.074;2023-03-01T09:04:14;98351.06;;;8.87;35.72
2841;BME280;53423;49.224;12.074;2023-03-01T09:06:42;98345.13;;;8.56;35.78
2841;BME280;53423;49.224;12.074;2023-03-01T09:09:14;98337.25;;;8.28;35.90
2841;BME280;53423;49.224;12.074;2023-03-01T09:11:42;98340.47;;;8.89;35.75
2841;BME280;53423;49.224;12.074;2023-03-01T09:14:13;98332.69;;;9.90;33.13
2841;BME280;53423;49.224;12.074;2023-03-01T09:16:41;98344.75;;;9.64;34.20
2841;BME280;53423;49.224;12.074;2023-03-01T09:19:11;98325.75;;;9.72;34.06
2841;BME280;53423;49.224;12.074;2023-03-01T09:21:39;98325.91;;;10.34;33.44
2841;BME280;53423;49.224;12.074;2023-03-01T09:24:12;98315.41;;;10.34;32.77
2841;BME280;53423;49.224;12.074;2023-03-01T09:26:41;98309.47;;;10.15;34.20
2841;BME280;53423;49.224;12.074;2023-03-01T09:29:09;98315.91;;;10.20;33.11
2841;BME280;53423;49.224;12.074;2023-03-01T09:31:37;98315.53;;;10.60;33.01
2841;BME280;53423;49.224;12.074;2023-03-01T09:34:06;98310.03;;;10.09;32.32
2841;BME280;53423;49.224;12.074;2023-03-01T09:36:36;98315.41;;;10.34;31.81
2841;BME280;53423;49.224;12.074;2023-03-01T09:39:04;98314.72;;;9.68;33.27
2841;BME280;53423;49.224;12.074;2023-03-01T09:41:44;98305.53;;;10.28;32.76
2841;BME280;53423;49.224;12.074;2023-03-01T09:44:20;98304.66;;;9.73;32.84
2841;BME280;53423;49.224;12.074;2023-03-01T09:46:51;98304.81;;;10.53;32.10
2841;BME280;53423;49.224;12.074;2023-03-01T09:49:23;98300.84;;;10.49;32.37
2841;BME280;53423;49.224;12.074;2023-03-01T09:51:59;98291.44;;;10.99;31.38
2841;BME280;53423;49.224;12.074;2023-03-01T09:54:28;98292.59;;;11.22;29.30
2841;BME280;53423;49.224;12.074;2023-03-01T09:57:11;98292.53;;;10.71;31.86
2841;BME280;53423;49.224;12.074;2023-03-01T09:59:56;98294.88;;;11.17;31.16
2841;BME280;53423;49.224;12.074;2023-03-01T10:02:30;98285.31;;;11.08;31.04
2841;BME280;53423;49.224;12.074;2023-03-01T10:05:09;98282.50;;;11.61;29.77
2841;BME280;53423;49.224;12.074;2023-03-01T10:07:45;98289.75;;;11.59;29.06
2841;BME280;53423;49.224;12.074;2023-03-01T10:10:26;98277.75;;;11.57;29.47
2841;BME280;53423;49.224;12.074;2023-03-01T10:12:56;98276.63;;;11.93;30.13
2841;BME280;53423;49.224;12.074;2023-03-01T10:15:32;98274.69;;;12.52;28.29
2841;BME280;53423;49.224;12.074;2023-03-01T10:18:04;98274.63;;;11.87;29.22
2841;BME280;53423;49.224;12.074;2023-03-01T10:20:42;98263.59;;;11.50;30.86
2841;BME280;53423;49.224;12.074;2023-03-01T10:23:12;98272.78;;;12.13;30.36
2841;BME280;53423;49.224;12.074;2023-03-01T10:25:49;98266.38;;;12.15;29.42
2841;BME280;53423;49.224;12.074;2023-03-01T10:28:25;98253.22;;;12.07;28.06
2841;BME280;53423;49.224;12.074;2023-03-01T10:30:57;98261.34;;;12.46;29.70
2841;BME280;53423;49.224;12.074;2023-03-01T10:33:27;98241.97;;;12.47;28.94
2841;BME280;53423;49.224;12.074;2023-03-01T10:35:56;98242.63;;;12.41;28.46
2841;BME280;53423;49.224;12.074;2023-03-01T10:38:26;98239.69;;;12.68;28.76
2841;BME280;53423;49.224;12.074;2023-03-01T10:40:59;98226.53;;;13.79;26.97
2841;BME280;53423;49.224;12.074;2023-03-01T10:43:43;98222.09;;;13.17;27.44
2841;BME280;53423;49.224;12.074;2023-03-01T10:46:23;98225.28;;;13.59;26.69
2841;BME280;53423;49.224;12.074;2023-03-01T10:49:06;98216.75;;;13.41;26.80
2841;BME280;53423;49.224;12.074;2023-03-01T10:51:36;98218.59;;;13.87;26.06
2841;BME280;53423;49.224;12.074;2023-03-01T10:54:16;98212.06;;;13.04;27.99
2841;BME280;53423;49.224;12.074;2023-03-01T10:56:49;98194.88;;;13.87;26.25
2841;BME280;53423;49.224;12.074;2023-03-01T10:59:26;98197.84;;;13.37;26.90
2841;BME280;53423;49.224;12.074;2023-03-01T11:02:15;98186.41;;;12.26;29.14
2841;BME280;53423;49.224;12.074;2023-03-01T11:04:58;98197.03;;;12.00;30.09
2841;BME280;53423;49.224;12.074;2023-03-01T11:07:28;98191.00;;;12.32;28.68
2841;BME280;53423;49.224;12.074;2023-03-01T11:09:57;98190.63;;;12.03;28.32
2841;BME280;53423;49.224;12.074;2023-03-01T11:12:25;98191.44;;;11.95;30.80
2841;BME280;53423;49.224;12.074;2023-03-01T11:14:57;98182.16;;;12.41;29.37
2841;BME280;53423;49.224;12.074;2023-03-01T11:17:27;98181.16;;;12.18;30.25
2841;BME280;53423;49.224;12.074;2023-03-01T11:20:07;98179.53;;;12.33;29.02
2841;BME280;53423;49.224;12.074;2023-03-01T11:22:47;98171.19;;;11.80;30.69
2841;BME280;53423;49.224;12.074;2023-03-01T11:25:19;98165.88;;;12.29;30.19
2841;BME280;53423;49.224;12.074;2023-03-01T11:27:49;98160.13;;;12.34;29.43
2841;BME280;53423;49.224;12.074;2023-03-01T11:30:20;98150.25;;;12.44;28.82
2841;BME280;53423;49.224;12.074;2023-03-01T11:32:56;98153.88;;;12.51;28.41
2841;BME280;53423;49.224;12.074;2023-03-01T11:35:29;98147.13;;;12.48;29.24
2841;BME280;53423;49.224;12.074;2023-03-01T11:38:09;98157.00;;;12.55;30.35
2841;BME280;53423;49.224;12.074;2023-03-01T11:40:45;98144.50;;;12.65;29.58
2841;BME280;53423;49.224;12.074;2023-03-01T11:43:26;98140.88;;;12.82;28.77
2841;BME280;53423;49.224;12.074;2023-03-01T11:48:54;98127.34;;;12.93;29.99
2841;BME280;53423;49.224;12.074;2023-03-01T11:51:38;98128.56;;;12.42;30.62
2841;BME280;53423;49.224;12.074;2023-03-01T11:54:17;98125.81;;;13.92;27.23
2841;BME280;53423;49.224;12.074;2023-03-01T11:56:54;98123.97;;;14.82;26.88
2841;BME280;53423;49.224;12.074;2023-03-01T11:59:35;98120.97;;;14.48;27.58
2841;BME280;53423;49.224;12.074;2023-03-01T12:02:46;98117.28;;;14.72;26.84
2841;BME280;53423;49.224;12.074;2023-03-01T12:05:48;98111.56;;;14.31;27.78
2841;BME280;53423;49.224;12.074;2023-03-01T12:08:24;98106.34;;;14.46;27.89
2841;BME280;53423;49.224;12.074;2023-03-01T12:11:03;98104.63;;;14.30;27.88
2841;BME280;53423;49.224;12.074;2023-03-01T12:13:56;98099.59;;;14.21;28.56
2841;BME280;53423;49.224;12.074;2023-03-01T12:16:33;98086.66;;;14.48;27.84
2841;BME280;53423;49.224;12.074;2023-03-01T12:19:19;98088.09;;;14.73;27.48
2841;BME280;53423;49.224;12.074;2023-03-01T12:22:01;98068.25;;;14.03;28.04
2841;BME280;53423;49.224;12.074;2023-03-01T12:24:43;98067.03;;;14.51;28.09
2841;BME280;53423;49.224;12.074;2023-03-01T12:27:31;98071.81;;;15.14;26.95
2841;BME280;53423;49.224;12.074;2023-03-01T12:30:15;98074.94;;;14.36;29.62
2841;BME280;53423;49.224;12.074;2023-03-01T12:32:57;98071.94;;;14.39;28.62
2841;BME280;53423;49.224;12.074;2023-03-01T12:35:45;98072.50;;;13.28;30.59
2841;BME280;53423;49.224;12.074;2023-03-01T12:38:31;98080.41;;;12.58;31.92
2841;BME280;53423;49.224;12.074;2023-03-01T12:44:01;98071.53;;;12.59;33.12
2841;BME280;53423;49.224;12.074;2023-03-01T12:50:40;98066.16;;;12.36;32.78
2841;BME280;53423;49.224;12.074;2023-03-01T12:53:20;98062.53;;;12.21;33.40
2841;BME280;53423;49.224;12.074;2023-03-01T12:55:50;98062.78;;;11.54;33.63
2841;BME280;53423;49.224;12.074;2023-03-01T12:58:39;98064.91;;;11.58;34.69
2841;BME280;53423;49.224;12.074;2023-03-01T13:01:25;98059.25;;;11.87;33.59
2841;BME280;53423;49.224;12.074;2023-03-01T13:04:12;98055.81;;;11.94;33.67
2841;BME280;53423;49.224;12.074;2023-03-01T13:06:58;98058.53;;;11.11;34.77
2841;BME280;53423;49.224;12.074;2023-03-01T13:09:34;98062.94;;;11.02;35.70
2841;BME280;53423;49.224;12.074;2023-03-01T13:15:25;98050.84;;;10.50;37.15
2841;BME280;53423;49.224;12.074;2023-03-01T13:17:55;98056.75;;;10.78;36.46
2841;BME280;53423;49.224;12.074;2023-03-01T13:20:29;98057.56;;;10.45;37.14
2841;BME280;53423;49.224;12.074;2023-03-01T13:23:10;98057.47;;;10.11;37.78
2841;BME280;53423;49.224;12.074;2023-03-01T13:26:11;98055.22;;;10.16;37.57
2841;BME280;53423;49.224;12.074;2023-03-01T13:28:51;98056.94;;;10.51;38.33
2841;BME280;53423;49.224;12.074;2023-03-01T13:34:51;98062.47;;;9.87;38.26
2841;BME280;53423;49.224;12.074;2023-03-01T13:37:25;98058.31;;;10.37;38.18
2841;BME280;53423;49.224;12.074;2023-03-01T13:42:43;98059.94;;;10.13;38.31
2841;BME280;53423;49.224;12.074;2023-03-01T13:45:34;98055.81;;;10.10;37.71
2841;BME280;53423;49.224;12.074;2023-03-01T13:48:09;98054.72;;;9.77;38.23
2841;BME280;53423;49.224;12.074;2023-03-01T13:50:45;98062.63;;;9.50;39.38